Time;durP1;ratioP1;P1;durP2;ratioP2;P2;SDS_P1;SDS_P2;PMS_P1;PMS_P2;Temp;Humidity;BMP_temperature;BMP_pressure;BME280_temperature;BME280_humidity;BME280_pressure;Samples;Min_cycle;Max_cycle;Signal;HPM_P1;HPM_P2
2023/03/21 00:01:56;;;;;;;6.23;4.37;;;;;;;;;;5070621;28;20215;-63
2023/03/21 00:04:24;;;;;;;5.00;3.70;;;;;;;;;;5075273;28;20246;-63
2023/03/21 00:06:52;;;;;;;4.60;4.20;;;;;;;;;;5082981;28;20205;-62
2023/03/21 00:09:19;;;;;;;5.27;3.90;;;;;;;;;;5093547;28;20306;-64
2023/03/21 00:11:47;;;;;;;4.23;3.50;;;;;;;;;;5079376;27;20235;-65
2023/03/21 00:14:17;;;;;;;5.67;3.77;;;;;;;;;;5070332;28;20220;-65
2023/03/21 00:16:49;;;;;;;4.93;3.47;;;;;;;;;;5068662;28;20209;-63
2023/03/21 00:19:19;;;;;;;5.33;3.97;;;;;;;;;;5086592;28;20300;-62
2023/03/21 00:21:51;;;;;;;4.33;3.67;;;;;;;;;;5080380;28;20238;-62
2023/03/21 00:24:36;;;;;;;6.30;3.47;;;;;;;;;;5072954;28;20724;-63
2023/03/21 00:27:04;;;;;;;3.73;3.43;;;;;;;;;;5065548;28;20207;-63
2023/03/21 00:29:52;;;;;;;4.00;3.60;;;;;;;;;;5097973;27;20219;-65
2023/03/21 00:32:20;;;;;;;3.90;3.53;;;;;;;;;;5077577;27;20227;-64
2023/03/21 00:34:48;;;;;;;3.63;3.30;;;;;;;;;;5085765;27;20225;-64
2023/03/21 00:37:35;;;;;;;3.63;3.33;;;;;;;;;;5084066;28;20204;-64
2023/03/21 00:40:08;;;;;;;5.17;3.30;;;;;;;;;;5066956;28;20278;-64
2023/03/21 00:42:45;;;;;;;3.87;3.57;;;;;;;;;;5065440;28;20745;-63
2023/03/21 00:45:14;;;;;;;4.33;3.40;;;;;;;;;;5073570;28;20250;-63
2023/03/21 00:47:41;;;;;;;4.33;3.20;;;;;;;;;;5088191;28;20259;-64
2023/03/21 00:50:10;;;;;;;3.63;3.33;;;;;;;;;;5086168;28;20576;-62
2023/03/21 00:52:38;;;;;;;3.67;3.17;;;;;;;;;;5095247;28;20212;-64
2023/03/21 00:55:09;;;;;;;5.13;3.47;;;;;;;;;;5093149;28;20263;-64
2023/03/21 00:57:37;;;;;;;4.00;3.70;;;;;;;;;;5079355;28;20326;-64
2023/03/21 01:00:08;;;;;;;4.83;3.50;;;;;;;;;;5070564;28;20314;-64
2023/03/21 01:02:36;;;;;;;3.30;3.00;;;;;;;;;;5070555;28;20623;-64
2023/03/21 01:05:04;;;;;;;3.43;3.13;;;;;;;;;;5064728;28;20228;-64
2023/03/21 01:07:32;;;;;;;3.47;3.17;;;;;;;;;;5071092;28;20403;-64
2023/03/21 01:09:59;;;;;;;3.30;3.00;;;;;;;;;;5067798;28;20354;-64
2023/03/21 01:12:27;;;;;;;3.03;2.83;;;;;;;;;;5076097;28;20204;-64
2023/03/21 01:14:54;;;;;;;3.20;2.77;;;;;;;;;;5068905;27;20317;-64
2023/03/21 01:17:21;;;;;;;5.00;3.40;;;;;;;;;;5073773;28;20667;-64
2023/03/21 01:19:49;;;;;;;4.37;3.17;;;;;;;;;;5070803;28;20209;-64
2023/03/21 01:22:19;;;;;;;3.23;2.60;;;;;;;;;;5088240;27;20208;-63
2023/03/21 01:24:46;;;;;;;3.10;2.50;;;;;;;;;;5084201;27;20242;-63
2023/03/21 01:27:24;;;;;;;3.27;2.70;;;;;;;;;;5074167;28;20212;-64
2023/03/21 01:29:51;;;;;;;3.70;2.93;;;;;;;;;;5102030;27;20252;-64
2023/03/21 01:32:19;;;;;;;3.00;2.80;;;;;;;;;;5075587;27;20209;-63
2023/03/21 01:34:46;;;;;;;3.90;3.40;;;;;;;;;;5082566;27;20239;-65
2023/03/21 01:37:13;;;;;;;3.70;3.30;;;;;;;;;;5066578;28;20236;-64
2023/03/21 01:39:41;;;;;;;3.00;2.70;;;;;;;;;;5071458;28;20234;-65
2023/03/21 01:42:12;;;;;;;2.93;2.60;;;;;;;;;;5088194;27;21393;-64
2023/03/21 01:44:53;;;;;;;2.60;2.40;;;;;;;;;;5073020;28;20285;-63
2023/03/21 01:47:21;;;;;;;4.10;2.87;;;;;;;;;;5076440;28;20308;-64
2023/03/21 01:49:55;;;;;;;3.03;2.80;;;;;;;;;;5070620;28;20238;-64
2023/03/21 01:52:26;;;;;;;3.53;2.97;;;;;;;;;;5088095;27;20257;-63
2023/03/21 01:55:12;;;;;;;4.20;3.60;;;;;;;;;;5087914;27;20227;-64
2023/03/21 01:57:43;;;;;;;4.97;3.40;;;;;;;;;;5062400;28;20204;-63
2023/03/21 02:00:28;;;;;;;4.87;3.50;;;;;;;;;;5072246;28;20204;-63
2023/03/21 02:02:56;;;;;;;5.83;3.83;;;;;;;;;;5075736;28;20287;-63
2023/03/21 02:05:55;;;;;;;4.17;2.80;;;;;;;;;;5085975;28;20235;-64
2023/03/21 02:08:23;;;;;;;3.07;2.87;;;;;;;;;;5086517;27;20251;-67
2023/03/21 02:11:05;;;;;;;3.17;2.90;;;;;;;;;;5073430;28;20208;-63
2023/03/21 02:13:35;;;;;;;3.43;2.57;;;;;;;;;;5082278;27;20211;-64
2023/03/21 02:16:14;;;;;;;2.73;2.53;;;;;;;;;;5082971;27;20269;-65
2023/03/21 02:18:47;;;;;;;3.07;2.87;;;;;;;;;;5073989;28;20236;-67
2023/03/21 02:21:15;;;;;;;3.73;3.07;;;;;;;;;;5086337;27;20235;-67
2023/03/21 02:23:46;;;;;;;2.80;2.60;;;;;;;;;;5082883;27;20231;-67
2023/03/21 02:26:20;;;;;;;3.60;2.60;;;;;;;;;;5070939;27;20255;-63
2023/03/21 02:29:12;;;;;;;2.93;2.40;;;;;;;;;;5094601;27;20253;-64
2023/03/21 02:31:43;;;;;;;3.40;2.53;;;;;;;;;;5066297;28;20218;-66
2023/03/21 02:34:10;;;;;;;2.23;2.13;;;;;;;;;;5064551;28;20297;-67
2023/03/21 02:36:50;;;;;;;2.83;2.50;;;;;;;;;;5071621;27;20224;-65
2023/03/21 02:39:33;;;;;;;2.80;2.60;;;;;;;;;;5061010;28;20208;-66
2023/03/21 02:42:00;;;;;;;2.70;2.50;;;;;;;;;;5091794;28;20260;-63
2023/03/21 02:44:30;;;;;;;2.80;2.60;;;;;;;;;;5086431;28;20325;-65
2023/03/21 02:47:12;;;;;;;2.70;2.50;;;;;;;;;;5079033;28;20274;-65
2023/03/21 02:49:44;;;;;;;2.87;2.63;;;;;;;;;;5080654;28;20268;-66
2023/03/21 02:52:14;;;;;;;3.80;3.37;;;;;;;;;;5074041;28;20279;-64
2023/03/21 02:54:59;;;;;;;4.50;4.10;;;;;;;;;;5059813;28;20224;-65
2023/03/21 02:57:27;;;;;;;5.03;3.80;;;;;;;;;;5061949;27;20261;-64
2023/03/21 03:00:11;;;;;;;3.53;3.20;;;;;;;;;;5079251;27;20204;-64
2023/03/21 03:02:43;;;;;;;3.47;3.17;;;;;;;;;;5077320;27;20416;-66
2023/03/21 03:05:13;;;;;;;3.90;3.50;;;;;;;;;;5078440;27;20724;-66
2023/03/21 03:08:06;;;;;;;3.70;3.30;;;;;;;;;;5070150;28;20203;-67
2023/03/21 03:10:48;;;;;;;3.57;3.27;;;;;;;;;;5063999;28;20809;-66
2023/03/21 03:13:25;;;;;;;3.80;3.40;;;;;;;;;;5081145;28;20231;-65
2023/03/21 03:15:55;;;;;;;5.13;3.00;;;;;;;;;;5063993;28;20216;-67
2023/03/21 03:18:36;;;;;;;2.70;2.50;;;;;;;;;;5076300;27;20212;-64
2023/03/21 03:21:13;;;;;;;3.17;2.97;;;;;;;;;;5073788;27;20347;-65
2023/03/21 03:23:44;;;;;;;3.17;2.70;;;;;;;;;;5063514;28;20199;-67
2023/03/21 03:26:32;;;;;;;2.77;2.57;;;;;;;;;;5070174;27;20786;-65
2023/03/21 03:29:03;;;;;;;3.43;2.53;;;;;;;;;;5065568;27;20224;-65
2023/03/21 03:31:36;;;;;;;4.40;2.57;;;;;;;;;;5066000;28;20817;-66
2023/03/21 03:34:12;;;;;;;4.30;2.40;;;;;;;;;;5089852;27;20540;-65
2023/03/21 03:36:42;;;;;;;4.30;2.80;;;;;;;;;;5086591;27;20200;-65
2023/03/21 03:39:11;;;;;;;3.60;3.07;;;;;;;;;;5073768;27;20212;-67
2023/03/21 03:41:46;;;;;;;4.27;3.20;;;;;;;;;;5059853;27;20242;-65
2023/03/21 03:44:34;;;;;;;6.70;3.83;;;;;;;;;;5066481;27;20252;-65
2023/03/21 03:47:04;;;;;;;5.40;3.97;;;;;;;;;;5069280;28;20299;-66
2023/03/21 03:49:35;;;;;;;9.53;4.97;;;;;;;;;;5062235;27;20233;-67
2023/03/21 03:52:17;;;;;;;11.30;5.77;;;;;;;;;;5088068;27;20657;-65
2023/03/21 03:54:47;;;;;;;6.23;4.70;;;;;;;;;;5066690;27;20220;-65
2023/03/21 03:57:14;;;;;;;5.33;3.60;;;;;;;;;;5061734;28;20729;-65
2023/03/21 03:59:44;;;;;;;6.47;4.10;;;;;;;;;;5066560;28;20298;-66
2023/03/21 04:02:11;;;;;;;4.57;3.20;;;;;;;;;;5071177;27;21013;-65
2023/03/21 04:04:40;;;;;;;5.43;4.13;;;;;;;;;;5083557;28;20243;-67
2023/03/21 04:07:08;;;;;;;5.13;4.20;;;;;;;;;;5092104;27;20205;-65
2023/03/21 04:09:35;;;;;;;4.47;3.90;;;;;;;;;;5057531;28;21337;-66
2023/03/21 04:12:11;;;;;;;4.07;3.47;;;;;;;;;;5071784;28;20345;-67
2023/03/21 04:14:39;;;;;;;3.87;2.97;;;;;;;;;;5079841;27;20314;-65
2023/03/21 04:17:13;;;;;;;3.40;3.10;;;;;;;;;;5082043;27;20216;-65
2023/03/21 04:19:40;;;;;;;4.53;2.97;;;;;;;;;;5087236;27;20285;-65
2023/03/21 04:22:08;;;;;;;4.80;4.00;;;;;;;;;;5064920;28;20232;-65
2023/03/21 04:24:36;;;;;;;8.60;5.30;;;;;;;;;;5075179;27;20327;-66
2023/03/21 04:27:07;;;;;;;10.50;7.33;;;;;;;;;;5067026;28;20262;-65
2023/03/21 04:29:34;;;;;;;6.90;5.03;;;;;;;;;;5060228;28;20263;-66
2023/03/21 04:32:02;;;;;;;5.50;4.50;;;;;;;;;;5062469;28;20253;-65
2023/03/21 04:34:29;;;;;;;7.00;3.90;;;;;;;;;;5063091;28;20230;-68
2023/03/21 04:36:56;;;;;;;4.33;3.43;;;;;;;;;;5069811;28;20205;-65
2023/03/21 04:39:24;;;;;;;7.53;3.00;;;;;;;;;;5081376;28;20305;-66
2023/03/21 04:41:52;;;;;;;5.67;3.07;;;;;;;;;;5097430;28;20260;-63
2023/03/21 04:44:19;;;;;;;3.47;2.80;;;;;;;;;;5076742;28;20319;-66
2023/03/21 04:46:47;;;;;;;3.67;3.17;;;;;;;;;;5103565;28;20269;-65
2023/03/21 04:49:14;;;;;;;4.53;3.00;;;;;;;;;;5089691;28;20255;-65
2023/03/21 04:51:44;;;;;;;4.17;3.07;;;;;;;;;;5077883;28;20666;-66
2023/03/21 04:54:12;;;;;;;3.60;2.73;;;;;;;;;;5075840;28;20212;-67
2023/03/21 04:56:39;;;;;;;3.40;2.80;;;;;;;;;;5074856;28;20211;-64
2023/03/21 04:59:08;;;;;;;5.20;3.30;;;;;;;;;;5067488;28;20243;-66
2023/03/21 05:01:36;;;;;;;3.87;2.70;;;;;;;;;;5070761;28;20212;-66
2023/03/21 05:04:03;;;;;;;3.23;2.93;;;;;;;;;;5059741;28;20217;-65
2023/03/21 05:06:31;;;;;;;3.57;3.00;;;;;;;;;;5082091;28;20204;-66
2023/03/21 05:09:00;;;;;;;4.07;2.70;;;;;;;;;;5064765;28;20339;-65
2023/03/21 05:11:29;;;;;;;4.17;2.80;;;;;;;;;;5074201;28;20196;-68
2023/03/21 05:13:57;;;;;;;4.63;3.00;;;;;;;;;;5067180;28;20292;-65
2023/03/21 05:16:29;;;;;;;5.30;3.20;;;;;;;;;;5066032;28;20717;-65
2023/03/21 05:19:03;;;;;;;4.87;3.70;;;;;;;;;;5066946;28;20720;-65
2023/03/21 05:21:40;;;;;;;5.00;3.70;;;;;;;;;;5065347;28;20773;-63
2023/03/21 05:24:11;;;;;;;7.57;3.73;;;;;;;;;;5061839;28;20401;-65
2023/03/21 05:26:39;;;;;;;6.43;3.70;;;;;;;;;;5057921;28;20205;-65
2023/03/21 05:29:07;;;;;;;3.60;3.00;;;;;;;;;;5074514;28;20262;-64
2023/03/21 05:31:35;;;;;;;5.77;3.50;;;;;;;;;;5058807;28;20370;-64
2023/03/21 05:34:03;;;;;;;5.23;3.30;;;;;;;;;;5073023;28;20220;-65
2023/03/21 05:36:32;;;;;;;3.50;2.90;;;;;;;;;;5075450;28;20293;-65
2023/03/21 05:39:00;;;;;;;3.63;3.10;;;;;;;;;;5058708;28;20208;-67
2023/03/21 05:41:28;;;;;;;4.10;3.47;;;;;;;;;;5057454;28;22533;-66
2023/03/21 05:43:55;;;;;;;6.07;4.43;;;;;;;;;;5065479;28;20248;-66
2023/03/21 05:46:22;;;;;;;5.60;4.30;;;;;;;;;;5061274;28;20205;-66
2023/03/21 05:48:50;;;;;;;6.60;4.80;;;;;;;;;;5073190;28;20196;-67
2023/03/21 05:51:18;;;;;;;5.10;4.60;;;;;;;;;;5063762;28;20845;-67
2023/03/21 05:53:45;;;;;;;5.97;4.90;;;;;;;;;;5069772;28;20274;-66
2023/03/21 05:56:12;;;;;;;5.87;4.60;;;;;;;;;;5060627;28;20227;-64
2023/03/21 05:58:40;;;;;;;4.10;3.70;;;;;;;;;;5063644;27;21346;-65
2023/03/21 06:01:07;;;;;;;4.03;3.70;;;;;;;;;;5064282;28;20242;-65
2023/03/21 06:03:35;;;;;;;3.70;3.40;;;;;;;;;;5068904;27;20741;-65
2023/03/21 06:06:03;;;;;;;5.20;4.00;;;;;;;;;;5079447;28;20315;-64
2023/03/21 06:08:31;;;;;;;7.60;4.43;;;;;;;;;;5069910;28;20211;-64
2023/03/21 06:10:58;;;;;;;5.73;4.30;;;;;;;;;;5069076;28;20815;-64
2023/03/21 06:13:26;;;;;;;4.77;4.20;;;;;;;;;;5067478;28;20761;-66
2023/03/21 06:15:54;;;;;;;4.97;4.13;;;;;;;;;;5080857;27;20236;-67
2023/03/21 06:18:21;;;;;;;6.73;5.27;;;;;;;;;;5057156;27;20321;-65
2023/03/21 06:20:49;;;;;;;7.20;4.20;;;;;;;;;;5062162;27;20261;-68
2023/03/21 06:23:16;;;;;;;4.77;4.27;;;;;;;;;;5080197;27;20726;-66
2023/03/21 06:25:44;;;;;;;6.00;4.77;;;;;;;;;;5071097;28;20232;-65
2023/03/21 06:28:11;;;;;;;6.13;4.70;;;;;;;;;;5073226;28;20212;-65
2023/03/21 06:30:39;;;;;;;4.40;4.00;;;;;;;;;;5071058;28;20286;-65
2023/03/21 06:33:06;;;;;;;4.47;4.03;;;;;;;;;;5070115;28;20383;-66
2023/03/21 06:35:34;;;;;;;4.17;3.77;;;;;;;;;;5074450;27;20817;-65
2023/03/21 06:38:02;;;;;;;7.40;4.33;;;;;;;;;;5063486;27;20200;-66
2023/03/21 06:40:29;;;;;;;5.53;3.90;;;;;;;;;;5104072;27;20409;-66
2023/03/21 06:42:57;;;;;;;8.13;3.87;;;;;;;;;;5090017;27;20250;-67
2023/03/21 06:45:24;;;;;;;4.30;3.37;;;;;;;;;;5076987;28;20231;-64
2023/03/21 06:47:51;;;;;;;4.60;3.37;;;;;;;;;;5091416;27;20281;-66
2023/03/21 06:50:19;;;;;;;3.90;3.60;;;;;;;;;;5072597;28;20236;-63
2023/03/21 06:52:46;;;;;;;6.37;4.30;;;;;;;;;;5060494;28;20196;-64
2023/03/21 06:55:14;;;;;;;7.57;4.63;;;;;;;;;;5100503;27;20259;-63
2023/03/21 06:57:41;;;;;;;6.73;4.30;;;;;;;;;;5069599;27;20209;-64
2023/03/21 07:00:09;;;;;;;5.90;4.30;;;;;;;;;;5073845;28;20750;-63
2023/03/21 07:02:36;;;;;;;5.03;4.00;;;;;;;;;;5061780;27;20295;-65
2023/03/21 07:05:04;;;;;;;5.90;4.73;;;;;;;;;;5070771;28;20228;-66
2023/03/21 07:07:31;;;;;;;6.10;4.90;;;;;;;;;;5071776;28;20281;-64
2023/03/21 07:09:59;;;;;;;6.73;4.47;;;;;;;;;;5065537;28;20248;-64
2023/03/21 07:12:26;;;;;;;5.43;4.07;;;;;;;;;;5087196;27;20279;-64
2023/03/21 07:14:53;;;;;;;5.73;3.73;;;;;;;;;;5067649;28;20947;-65
2023/03/21 07:17:21;;;;;;;6.50;3.80;;;;;;;;;;5070849;28;20291;-63
2023/03/21 07:19:48;;;;;;;5.90;4.13;;;;;;;;;;5090594;27;20223;-62
2023/03/21 07:22:16;;;;;;;5.57;3.87;;;;;;;;;;5080877;27;20321;-63
2023/03/21 07:24:46;;;;;;;3.80;3.20;;;;;;;;;;5083932;27;20219;-65
2023/03/21 07:27:29;;;;;;;6.40;4.20;;;;;;;;;;5070870;28;20684;-63
2023/03/21 07:29:56;;;;;;;5.90;3.60;;;;;;;;;;5079842;27;20239;-64
2023/03/21 07:32:28;;;;;;;3.43;3.10;;;;;;;;;;5067994;28;20208;-65
2023/03/21 07:34:56;;;;;;;4.03;3.57;;;;;;;;;;5068719;27;20224;-64
2023/03/21 07:37:23;;;;;;;3.37;3.07;;;;;;;;;;5073004;28;20287;-64
2023/03/21 07:39:50;;;;;;;4.77;3.53;;;;;;;;;;5069291;28;20207;-64
2023/03/21 07:42:18;;;;;;;5.13;3.67;;;;;;;;;;5060471;28;20232;-62
2023/03/21 07:44:46;;;;;;;5.03;4.07;;;;;;;;;;5082837;27;20240;-63
2023/03/21 07:47:13;;;;;;;4.53;3.40;;;;;;;;;;5073983;28;20212;-64
2023/03/21 07:49:41;;;;;;;5.57;3.10;;;;;;;;;;5052763;28;20247;-65
2023/03/21 07:52:08;;;;;;;5.70;3.53;;;;;;;;;;5058654;27;20670;-63
2023/03/21 07:54:36;;;;;;;3.80;3.40;;;;;;;;;;5062492;28;20309;-64
2023/03/21 07:57:03;;;;;;;4.33;3.50;;;;;;;;;;5082559;27;20492;-64
2023/03/21 07:59:31;;;;;;;3.20;2.67;;;;;;;;;;5060461;28;20200;-64
2023/03/21 08:01:58;;;;;;;4.67;3.40;;;;;;;;;;5049516;28;20295;-64
2023/03/21 08:04:26;;;;;;;4.83;2.50;;;;;;;;;;5081403;27;20232;-64
2023/03/21 08:06:54;;;;;;;3.47;2.60;;;;;;;;;;5072598;28;20224;-64
2023/03/21 08:09:21;;;;;;;3.73;2.60;;;;;;;;;;5067559;27;20249;-64
2023/03/21 08:11:48;;;;;;;3.67;2.50;;;;;;;;;;5056253;27;20226;-63
2023/03/21 08:14:17;;;;;;;3.43;2.70;;;;;;;;;;5069982;27;20357;-64
2023/03/21 08:16:44;;;;;;;3.80;2.90;;;;;;;;;;5057412;28;20205;-63
2023/03/21 08:19:12;;;;;;;2.97;2.63;;;;;;;;;;5076198;27;20313;-64
2023/03/21 08:21:39;;;;;;;2.70;2.50;;;;;;;;;;5050054;28;20301;-64
2023/03/21 08:24:07;;;;;;;2.73;2.53;;;;;;;;;;5060261;28;20571;-63
2023/03/21 08:26:34;;;;;;;3.40;3.10;;;;;;;;;;5062613;28;20242;-64
2023/03/21 08:29:02;;;;;;;8.13;4.60;;;;;;;;;;5076578;27;21652;-64
2023/03/21 08:31:29;;;;;;;3.23;2.90;;;;;;;;;;5064981;28;20263;-64
2023/03/21 08:33:56;;;;;;;3.40;3.10;;;;;;;;;;5054532;28;20306;-64
2023/03/21 08:36:24;;;;;;;3.57;3.23;;;;;;;;;;5059969;28;20341;-64
2023/03/21 08:38:55;;;;;;;4.43;2.80;;;;;;;;;;5068162;28;20205;-64
2023/03/21 08:41:24;;;;;;;4.77;3.60;;;;;;;;;;5072947;28;20204;-64
2023/03/21 08:43:52;;;;;;;4.60;3.33;;;;;;;;;;5086286;28;20224;-64
2023/03/21 08:46:19;;;;;;;6.30;3.60;;;;;;;;;;5090935;28;20709;-64
2023/03/21 08:48:46;;;;;;;4.57;3.83;;;;;;;;;;5074272;28;20207;-64
2023/03/21 08:51:14;;;;;;;7.20;3.70;;;;;;;;;;5069234;28;20371;-65
2023/03/21 08:53:42;;;;;;;4.77;4.33;;;;;;;;;;5069652;28;20313;-64
2023/03/21 08:56:11;;;;;;;4.10;3.67;;;;;;;;;;5091312;27;20931;-64
2023/03/21 08:58:38;;;;;;;4.37;3.90;;;;;;;;;;5054928;28;20738;-64
2023/03/21 09:01:09;;;;;;;5.57;4.37;;;;;;;;;;5062346;28;20580;-64
2023/03/21 09:03:38;;;;;;;6.17;4.40;;;;;;;;;;5066666;28;20231;-64
2023/03/21 09:06:09;;;;;;;8.57;4.30;;;;;;;;;;5067201;28;20224;-64
2023/03/21 09:08:38;;;;;;;5.30;4.20;;;;;;;;;;5071801;28;20207;-64
2023/03/21 09:11:05;;;;;;;4.70;4.17;;;;;;;;;;5059990;28;20243;-64
2023/03/21 09:13:32;;;;;;;5.93;4.23;;;;;;;;;;5068870;28;20327;-65
2023/03/21 09:16:00;;;;;;;5.63;4.23;;;;;;;;;;5073051;28;20219;-65
2023/03/21 09:18:48;;;;;;;4.63;4.10;;;;;;;;;;5068777;28;20268;-64
2023/03/21 09:21:17;;;;;;;5.57;4.50;;;;;;;;;;5069794;28;20295;-64
2023/03/21 09:23:45;;;;;;;10.57;5.90;;;;;;;;;;5082116;28;20572;-63
2023/03/21 09:26:13;;;;;;;5.93;4.50;;;;;;;;;;5073121;28;21285;-64
2023/03/21 09:28:41;;;;;;;7.33;4.70;;;;;;;;;;5066816;27;20592;-65
2023/03/21 09:31:10;;;;;;;5.80;4.33;;;;;;;;;;5086858;27;20330;-65
2023/03/21 09:33:42;;;;;;;6.37;3.80;;;;;;;;;;5064918;28;20208;-65
2023/03/21 09:36:12;;;;;;;4.77;3.80;;;;;;;;;;5083772;27;20311;-65
2023/03/21 09:38:41;;;;;;;4.57;4.03;;;;;;;;;;5075756;28;20204;-64
2023/03/21 09:41:09;;;;;;;6.03;4.30;;;;;;;;;;5071578;27;21028;-65
2023/03/21 09:43:55;;;;;;;5.03;4.50;;;;;;;;;;5101101;27;20292;-65
2023/03/21 09:46:49;;;;;;;7.97;4.07;;;;;;;;;;5068133;28;20234;-65
2023/03/21 09:49:28;;;;;;;5.27;4.03;;;;;;;;;;5071731;28;20469;-64
2023/03/21 09:51:56;;;;;;;5.17;4.67;;;;;;;;;;5084419;27;20236;-64
2023/03/21 09:54:26;;;;;;;4.77;3.93;;;;;;;;;;5073825;28;20320;-64
2023/03/21 09:56:56;;;;;;;6.63;4.60;;;;;;;;;;5083665;27;20307;-64
2023/03/21 09:59:29;;;;;;;5.07;3.70;;;;;;;;;;5072046;28;20280;-65
2023/03/21 10:02:00;;;;;;;3.93;3.60;;;;;;;;;;5090582;27;20211;-63
2023/03/21 10:04:28;;;;;;;3.97;3.67;;;;;;;;;;5085607;28;20269;-63
2023/03/21 10:07:01;;;;;;;5.80;3.33;;;;;;;;;;5104572;27;20204;-64
2023/03/21 10:09:31;;;;;;;3.40;3.10;;;;;;;;;;5087368;27;20223;-63
2023/03/21 10:12:07;;;;;;;3.57;3.27;;;;;;;;;;5092544;27;20251;-65
2023/03/21 10:14:36;;;;;;;2.70;2.50;;;;;;;;;;5070413;27;20373;-63
2023/03/21 10:17:12;;;;;;;3.23;2.93;;;;;;;;;;5070968;27;20204;-63
2023/03/21 10:19:45;;;;;;;2.90;2.70;;;;;;;;;;5065482;28;20326;-63
2023/03/21 10:22:12;;;;;;;3.23;2.93;;;;;;;;;;5068344;28;20219;-63
2023/03/21 10:24:39;;;;;;;3.07;2.77;;;;;;;;;;5074176;27;20236;-63
2023/03/21 10:27:07;;;;;;;2.70;2.50;;;;;;;;;;5087509;27;20261;-65
2023/03/21 10:29:42;;;;;;;2.80;2.60;;;;;;;;;;5067702;28;21234;-64
2023/03/21 10:32:14;;;;;;;3.63;2.50;;;;;;;;;;5083836;27;20234;-65
2023/03/21 10:34:44;;;;;;;3.30;3.00;;;;;;;;;;5069751;28;20220;-66
2023/03/21 10:37:12;;;;;;;2.50;2.30;;;;;;;;;;5063710;28;20204;-63
2023/03/21 10:39:45;;;;;;;3.30;3.00;;;;;;;;;;5081109;28;20345;-66
2023/03/21 10:42:23;;;;;;;2.63;2.17;;;;;;;;;;5084766;28;20666;-65
2023/03/21 10:44:52;;;;;;;3.10;2.55;;;;;;;;;;5102636;28;20232;-65
2023/03/21 10:47:21;;;;;;;3.22;2.80;;;;;;;;;;5091825;28;20239;-65
2023/03/21 10:49:49;;;;;;;3.08;2.30;;;;;;;;;;5094650;28;20729;-66
2023/03/21 10:52:35;;;;;;;3.13;2.83;;;;;;;;;;5094658;28;20216;-66
2023/03/21 10:55:09;;;;;;;2.80;2.60;;;;;;;;;;5072418;28;20343;-64
2023/03/21 10:57:36;;;;;;;3.33;2.80;;;;;;;;;;5085980;27;20451;-63
2023/03/21 11:00:15;;;;;;;2.75;2.40;;;;;;;;;;5086118;27;20200;-65
2023/03/21 11:02:42;;;;;;;2.78;2.53;;;;;;;;;;5070440;27;20889;-64
2023/03/21 11:05:17;;;;;;;3.67;2.42;;;;;;;;;;5068052;28;20724;-64
2023/03/21 11:07:47;;;;;;;2.60;2.20;;;;;;;;;;5072979;28;20204;-65
2023/03/21 11:10:34;;;;;;;2.85;2.63;;;;;;;;;;5068784;27;20204;-64
2023/03/21 11:13:05;;;;;;;2.30;2.17;;;;;;;;;;5087843;27;22163;-65
2023/03/21 11:15:52;;;;;;;2.60;2.40;;;;;;;;;;5082527;27;20589;-65
2023/03/21 11:18:21;;;;;;;2.80;2.58;;;;;;;;;;5072571;28;20673;-65
2023/03/21 11:20:54;;;;;;;4.70;2.78;;;;;;;;;;5066213;28;20212;-65
2023/03/21 11:23:46;;;;;;;2.58;2.38;;;;;;;;;;5071754;27;20211;-65
2023/03/21 11:26:23;;;;;;;2.50;2.30;;;;;;;;;;5070253;28;20228;-66
2023/03/21 11:28:50;;;;;;;3.45;2.70;;;;;;;;;;5055109;27;20215;-65
2023/03/21 11:31:18;;;;;;;4.75;4.25;;;;;;;;;;5079442;28;20226;-65
2023/03/21 11:33:55;;;;;;;2.72;2.53;;;;;;;;;;5064374;28;20212;-65
2023/03/21 11:36:22;;;;;;;3.00;2.70;;;;;;;;;;5064359;28;20212;-63
2023/03/21 11:39:13;;;;;;;3.75;2.70;;;;;;;;;;5061893;28;20208;-67
2023/03/21 11:41:41;;;;;;;2.72;2.47;;;;;;;;;;5043396;28;20200;-64
2023/03/21 11:44:24;;;;;;;3.50;2.65;;;;;;;;;;5081262;28;20212;-65
2023/03/21 11:46:51;;;;;;;2.88;2.20;;;;;;;;;;5086350;28;20296;-66
2023/03/21 11:49:20;;;;;;;2.70;2.50;;;;;;;;;;5090359;28;20216;-67
2023/03/21 11:51:48;;;;;;;2.88;2.53;;;;;;;;;;5085578;28;20224;-66
2023/03/21 11:54:15;;;;;;;3.00;2.65;;;;;;;;;;5081360;28;20204;-66
2023/03/21 11:57:03;;;;;;;4.93;2.50;;;;;;;;;;5085214;28;20200;-67
2023/03/21 11:59:31;;;;;;;2.92;2.60;;;;;;;;;;5101076;27;20583;-67
2023/03/21 12:02:14;;;;;;;2.72;2.53;;;;;;;;;;5085374;28;20236;-66
2023/03/21 12:04:41;;;;;;;2.85;2.65;;;;;;;;;;5099384;27;20231;-66
2023/03/21 12:07:35;;;;;;;3.13;2.60;;;;;;;;;;5081141;28;20212;-66
2023/03/21 12:10:05;;;;;;;3.45;2.72;;;;;;;;;;5082968;27;20630;-68
2023/03/21 12:12:42;;;;;;;2.92;2.65;;;;;;;;;;5078129;28;20232;-65
2023/03/21 12:15:29;;;;;;;4.00;2.38;;;;;;;;;;5095687;27;20229;-65
2023/03/21 12:17:59;;;;;;;4.53;2.17;;;;;;;;;;5101420;28;20204;-66
2023/03/21 12:20:27;;;;;;;4.55;2.20;;;;;;;;;;5080477;27;20241;-66
2023/03/21 12:23:00;;;;;;;3.33;2.08;;;;;;;;;;5069588;28;20242;-67
2023/03/21 12:25:32;;;;;;;2.90;2.30;;;;;;;;;;5083293;28;20302;-67
2023/03/21 12:28:09;;;;;;;2.05;1.95;;;;;;;;;;5089711;27;20232;-66
2023/03/21 12:30:43;;;;;;;2.47;1.77;;;;;;;;;;5070958;28;20261;-67
2023/03/21 12:33:13;;;;;;;3.03;2.00;;;;;;;;;;5081482;27;20226;-65
2023/03/21 12:36:01;;;;;;;2.03;1.88;;;;;;;;;;5066151;28;20229;-66
2023/03/21 12:38:32;;;;;;;2.20;1.70;;;;;;;;;;5058448;28;20214;-65
2023/03/21 12:41:07;;;;;;;2.13;2.00;;;;;;;;;;5084845;28;20299;-65
2023/03/21 12:43:44;;;;;;;2.42;1.90;;;;;;;;;;5081072;28;20717;-65
2023/03/21 12:46:23;;;;;;;2.45;2.25;;;;;;;;;;5085464;28;20321;-65
2023/03/21 12:48:59;;;;;;;2.25;2.10;;;;;;;;;;5084258;28;20225;-64
2023/03/21 12:51:32;;;;;;;2.30;2.10;;;;;;;;;;5102721;28;20331;-64
2023/03/21 12:54:12;;;;;;;3.25;2.00;;;;;;;;;;5085033;28;20726;-64
2023/03/21 12:57:03;;;;;;;2.13;1.98;;;;;;;;;;5076463;28;20239;-64
2023/03/21 12:59:43;;;;;;;2.17;2.08;;;;;;;;;;5054952;28;22288;-64
2023/03/21 13:02:34;;;;;;;2.25;2.00;;;;;;;;;;5072867;28;20214;-63
2023/03/21 13:05:11;;;;;;;2.85;2.10;;;;;;;;;;5064311;28;20325;-64
2023/03/21 13:07:41;;;;;;;2.40;1.90;;;;;;;;;;5076883;28;20282;-63
2023/03/21 13:10:14;;;;;;;3.92;2.05;;;;;;;;;;5072637;27;20474;-65
2023/03/21 13:12:45;;;;;;;1.90;1.80;;;;;;;;;;5084346;27;20239;-65
2023/03/21 13:15:18;;;;;;;2.00;1.80;;;;;;;;;;5087281;27;20228;-65
2023/03/21 13:17:59;;;;;;;3.25;2.22;;;;;;;;;;5077307;28;20208;-64
2023/03/21 13:20:37;;;;;;;2.15;1.92;;;;;;;;;;5080650;27;20642;-64
2023/03/21 13:23:07;;;;;;;2.30;2.10;;;;;;;;;;5090616;27;20222;-65
2023/03/21 13:25:38;;;;;;;2.10;2.00;;;;;;;;;;5068412;27;20265;-66
2023/03/21 13:28:06;;;;;;;2.80;2.17;;;;;;;;;;5091401;27;20297;-65
2023/03/21 13:30:34;;;;;;;2.53;2.05;;;;;;;;;;5100703;27;20217;-64
2023/03/21 13:33:06;;;;;;;1.92;1.83;;;;;;;;;;5087510;27;20231;-65
2023/03/21 13:35:36;;;;;;;1.85;1.75;;;;;;;;;;5088614;28;20310;-65
2023/03/21 13:38:09;;;;;;;1.80;1.70;;;;;;;;;;5083068;27;20208;-65
2023/03/21 13:40:55;;;;;;;4.25;1.98;;;;;;;;;;5087638;27;20216;-64
2023/03/21 13:43:41;;;;;;;2.75;2.00;;;;;;;;;;5089834;27;20231;-66
2023/03/21 13:46:13;;;;;;;1.83;1.70;;;;;;;;;;5071677;27;20280;-66
2023/03/21 13:48:40;;;;;;;2.00;1.80;;;;;;;;;;5090764;27;20211;-64
2023/03/21 13:51:28;;;;;;;1.70;1.60;;;;;;;;;;5075351;27;20224;-64
2023/03/21 13:54:03;;;;;;;2.13;1.50;;;;;;;;;;5073404;28;20303;-66
2023/03/21 13:56:51;;;;;;;1.58;1.48;;;;;;;;;;5086836;27;20253;-66
2023/03/21 13:59:38;;;;;;;1.65;1.48;;;;;;;;;;5073163;28;20669;-65
2023/03/21 14:02:11;;;;;;;2.00;1.90;;;;;;;;;;5088841;27;20226;-66
2023/03/21 14:04:40;;;;;;;2.47;1.98;;;;;;;;;;5089293;28;20220;-64
2023/03/21 14:07:27;;;;;;;1.75;1.65;;;;;;;;;;5105100;27;20210;-64
2023/03/21 14:09:58;;;;;;;2.15;1.95;;;;;;;;;;5074672;27;20215;-66
2023/03/21 14:12:30;;;;;;;2.47;1.80;;;;;;;;;;5065364;28;20227;-66
2023/03/21 14:14:59;;;;;;;3.00;1.95;;;;;;;;;;5073554;28;20225;-66
2023/03/21 14:17:36;;;;;;;2.00;1.83;;;;;;;;;;5071779;28;20277;-63
2023/03/21 14:20:24;;;;;;;2.28;1.70;;;;;;;;;;5066470;28;20293;-65
2023/03/21 14:22:52;;;;;;;3.25;1.73;;;;;;;;;;5069909;27;20211;-63
2023/03/21 14:25:20;;;;;;;1.85;1.60;;;;;;;;;;5066755;28;20288;-65
2023/03/21 14:27:55;;;;;;;2.45;1.70;;;;;;;;;;5070217;28;20258;-65
2023/03/21 14:30:25;;;;;;;2.17;1.92;;;;;;;;;;5072686;28;20287;-66
2023/03/21 14:32:58;;;;;;;1.88;1.77;;;;;;;;;;5086361;27;20536;-65
2023/03/21 14:35:30;;;;;;;1.55;1.45;;;;;;;;;;5077539;28;20302;-62
2023/03/21 14:38:04;;;;;;;1.45;1.35;;;;;;;;;;5063788;28;20670;-63
2023/03/21 14:40:31;;;;;;;2.72;1.60;;;;;;;;;;5082263;28;20228;-65
2023/03/21 14:43:03;;;;;;;3.92;1.80;;;;;;;;;;5107926;27;20661;-65
2023/03/21 14:45:30;;;;;;;3.83;1.50;;;;;;;;;;5089431;28;20255;-66
2023/03/21 14:47:59;;;;;;;1.55;1.42;;;;;;;;;;5106038;27;20629;-66
2023/03/21 14:50:30;;;;;;;3.60;1.40;;;;;;;;;;5078837;28;20219;-65
2023/03/21 14:52:58;;;;;;;1.60;1.50;;;;;;;;;;5073085;28;20859;-65
2023/03/21 14:55:26;;;;;;;1.77;1.63;;;;;;;;;;5069743;28;20216;-65
2023/03/21 14:57:55;;;;;;;1.92;1.55;;;;;;;;;;5071337;28;20254;-66
2023/03/21 15:00:29;;;;;;;2.17;1.55;;;;;;;;;;5071510;27;20266;-65
2023/03/21 15:02:58;;;;;;;1.92;1.27;;;;;;;;;;5074035;28;20657;-64
2023/03/21 15:05:28;;;;;;;1.77;1.30;;;;;;;;;;5074203;28;20224;-65
2023/03/21 15:08:00;;;;;;;1.40;1.30;;;;;;;;;;5084091;27;22816;-65
2023/03/21 15:10:29;;;;;;;2.08;1.88;;;;;;;;;;5068272;28;20547;-65